Luverne, Alabama
Current Conditions -  °F | °C
As of 6:17 AM on Monday 24 Nov 2014 (Local Time) from KTOI Reporting Station
Broken Clouds Broken Clouds  
Wind Chill: 19°   Ceiling: 1800
Heat Index: 19°   Visibility: 9mi
Dew Point: 18°   Wind: 8mph
Humidity: 90%   Direction: 220°SW
Pressure: 29.81"   Gusts: NA
Location:  31.72°N, 86.26°W
Report Text: KTOI 241217Z AUTO 22007KT 9SM SCT011 BKN018 19/18 A2981 RMK AO2 T01940178
Loading
Personal Weather Stations






























Interactive Weather Map New forecast layout! Learn more

10-Day Weather Forecast

Advertisements
Track Severe Weather on mobile